createdAt,value
2022-11-13T00:03:07.361Z,38.98
2022-11-13T00:08:30.011Z,41.90
2022-11-13T00:13:54.358Z,39.30
2022-11-13T00:19:17.416Z,37.42
2022-11-13T00:24:40.080Z,36.63
2022-11-13T00:30:02.917Z,42.05
2022-11-13T00:35:26.433Z,39.13
2022-11-13T00:40:48.946Z,41.10
2022-11-13T00:46:13.041Z,42.67
2022-11-13T00:51:35.319Z,50.38
2022-11-13T00:56:57.701Z,49.18
2022-11-13T01:02:19.933Z,46.15
2022-11-13T01:07:43.216Z,47.58
2022-11-13T01:13:05.495Z,47.05
2022-11-13T01:18:27.982Z,45.08
2022-11-13T01:23:50.793Z,44.75
2022-11-13T01:29:13.587Z,46.25
2022-11-13T01:34:36.910Z,45.85
2022-11-13T01:39:59.203Z,48.95
2022-11-13T01:45:57.371Z,46.02
2022-11-13T01:57:10.251Z,45.90
2022-11-13T02:02:33.003Z,45.73
2022-11-13T02:07:55.309Z,48.37
2022-11-13T02:13:18.276Z,47.40
2022-11-13T02:18:43.644Z,50.83
2022-11-13T02:24:25.716Z,49.40
2022-11-13T02:29:47.895Z,48.37
2022-11-13T02:35:10.808Z,47.77
2022-11-13T02:40:33.607Z,43.93
2022-11-13T02:45:55.800Z,46.03
2022-11-13T02:51:18.215Z,45.60
2022-11-13T02:56:40.576Z,46.37
2022-11-13T03:02:02.827Z,51.50
2022-11-13T03:07:26.883Z,59.20
2022-11-13T03:12:49.383Z,50.30
2022-11-13T03:18:13.519Z,56.10
2022-11-13T03:23:36.270Z,60.40
2022-11-13T03:28:58.897Z,50.87
2022-11-13T03:34:21.153Z,52.00
2022-11-13T03:39:43.560Z,55.05
2022-11-13T03:45:05.739Z,53.45
2022-11-13T03:50:28.234Z,51.63
2022-11-13T03:55:51.081Z,48.07
2022-11-13T04:01:14.682Z,48.23
2022-11-13T04:06:36.884Z,47.23
2022-11-13T04:11:59.115Z,47.47
2022-11-13T04:17:21.458Z,43.80
2022-11-13T04:22:44.103Z,49.37
2022-11-13T04:28:07.909Z,50.40
2022-11-13T04:33:30.182Z,47.38
2022-11-13T04:38:52.384Z,42.87
2022-11-13T04:44:15.873Z,42.98
2022-11-13T04:49:38.169Z,41.37
2022-11-13T04:55:00.915Z,43.30
2022-11-13T05:00:24.474Z,40.17
2022-11-13T05:05:46.673Z,37.93
2022-11-13T05:11:10.030Z,39.33
2022-11-13T05:16:33.238Z,34.43
2022-11-13T05:21:56.376Z,37.48
2022-11-13T05:27:18.577Z,37.23
2022-11-13T05:32:40.762Z,38.20
2022-11-13T05:38:02.969Z,36.13
2022-11-13T05:43:25.522Z,38.02
2022-11-13T05:48:48.212Z,38.67
2022-11-13T05:54:12.064Z,36.55
2022-11-13T05:59:34.393Z,35.20
2022-11-13T06:04:57.830Z,36.03
2022-11-13T06:10:20.481Z,35.70
2022-11-13T06:15:42.699Z,35.27
2022-11-13T06:21:13.005Z,36.03
2022-11-13T06:26:39.403Z,36.55
2022-11-13T06:32:01.619Z,41.30
2022-11-13T06:37:24.270Z,47.23
2022-11-13T06:42:46.469Z,56.80
2022-11-13T06:48:09.723Z,54.47
2022-11-13T06:53:32.175Z,61.28
2022-11-13T06:58:54.952Z,52.53
2022-11-13T07:04:18.834Z,44.70
2022-11-13T07:09:41.026Z,47.73
2022-11-13T07:15:03.207Z,52.23
2022-11-13T07:20:25.813Z,60.60
2022-11-13T07:25:48.589Z,66.30
2022-11-13T07:31:12.424Z,57.10
2022-11-13T07:36:34.962Z,47.25
2022-11-13T07:41:58.228Z,37.15
2022-11-13T07:47:20.687Z,35.52
2022-11-13T07:52:43.221Z,35.17
2022-11-13T07:58:09.350Z,32.90
2022-11-13T08:03:33.301Z,37.77
2022-11-13T08:08:56.694Z,36.20
2022-11-13T08:14:19.906Z,42.53
2022-11-13T08:19:42.177Z,44.55
2022-11-13T08:25:04.405Z,41.53
2022-11-13T08:30:28.506Z,40.75
2022-11-13T08:35:52.477Z,43.70
2022-11-13T08:41:19.352Z,35.23
2022-11-13T08:46:41.679Z,36.88
2022-11-13T08:52:04.176Z,36.33
2022-11-13T08:57:26.475Z,31.02
2022-11-13T09:02:48.903Z,33.80
2022-11-13T09:08:14.427Z,31.97
2022-11-13T09:13:42.876Z,30.57
2022-11-13T09:19:02.924Z,30.27
2022-11-13T09:24:25.168Z,29.82
2022-11-13T09:29:51.500Z,30.80
2022-11-13T09:35:12.062Z,30.60
2022-11-13T09:40:55.664Z,30.12
2022-11-13T09:46:34.508Z,31.70
2022-11-13T09:52:19.033Z,23.37
2022-11-13T09:57:55.199Z,22.77
2022-11-13T10:03:59.234Z,24.80
2022-11-13T10:09:08.277Z,26.15
2022-11-13T10:14:55.466Z,22.62
2022-11-13T10:20:31.342Z,20.48
2022-11-13T10:25:57.178Z,23.90
2022-11-13T10:31:20.989Z,22.98
2022-11-13T10:37:00.279Z,29.60
2022-11-13T10:42:28.334Z,33.05
2022-11-13T10:48:09.468Z,29.25
2022-11-13T10:53:21.332Z,29.90
2022-11-13T10:58:44.249Z,32.95
2022-11-13T11:04:10.798Z,29.98
2022-11-13T11:09:48.420Z,63.38
2022-11-13T11:15:24.062Z,32.78
2022-11-13T11:21:02.396Z,32.10
2022-11-13T11:26:40.984Z,36.63
2022-11-13T11:32:14.025Z,37.58
2022-11-13T11:37:43.446Z,41.15
2022-11-13T11:43:28.563Z,35.68
2022-11-13T11:48:51.959Z,44.83
2022-11-13T11:54:34.971Z,47.98
2022-11-13T12:00:10.775Z,39.05
2022-11-13T12:05:37.334Z,37.85
2022-11-13T12:11:10.483Z,36.95
2022-11-13T12:17:00.520Z,31.23
2022-11-13T12:22:31.145Z,36.33
2022-11-13T12:28:01.820Z,36.40
2022-11-13T12:33:44.577Z,36.55
2022-11-13T12:39:29.706Z,39.73
2022-11-13T12:50:46.415Z,38.00
2022-11-13T12:56:18.308Z,33.38
2022-11-13T13:01:43.425Z,34.23
2022-11-13T13:07:29.214Z,30.13
2022-11-13T13:13:24.814Z,34.03
2022-11-13T13:18:54.041Z,33.95
2022-11-13T13:24:30.516Z,31.35
2022-11-13T13:29:53.822Z,34.65
2022-11-13T13:35:39.265Z,34.38
2022-11-13T13:41:24.951Z,31.50
2022-11-13T13:46:49.501Z,30.95
2022-11-13T13:52:13.237Z,30.90
2022-11-13T13:57:36.282Z,60.83
2022-11-13T14:03:10.082Z,28.70
2022-11-13T14:08:40.115Z,26.50
2022-11-13T14:14:04.361Z,27.00
2022-11-13T14:19:28.571Z,20.95
2022-11-13T14:25:09.272Z,22.07
2022-11-13T14:30:45.915Z,22.82
2022-11-13T14:36:14.084Z,25.57
2022-11-13T14:41:50.065Z,22.25
2022-11-13T14:47:30.831Z,27.75
2022-11-13T14:52:54.858Z,24.43
2022-11-13T14:58:19.192Z,21.35
2022-11-13T15:03:41.460Z,25.12
2022-11-13T15:09:06.211Z,25.97
2022-11-13T15:14:31.681Z,30.88
2022-11-13T15:19:55.790Z,28.10
2022-11-13T15:25:31.080Z,27.13
2022-11-13T15:30:53.344Z,22.90
2022-11-13T15:36:15.991Z,23.07
2022-11-13T15:41:41.398Z,18.93
2022-11-13T15:47:04.148Z,19.43
2022-11-13T15:52:28.346Z,16.52
2022-11-13T15:57:50.764Z,15.23
2022-11-13T16:03:14.489Z,17.30
2022-11-13T16:08:37.167Z,17.77
2022-11-13T16:13:59.452Z,15.67
2022-11-13T16:19:25.893Z,18.75
2022-11-13T16:24:48.424Z,18.17
2022-11-13T16:30:11.816Z,18.40
2022-11-13T16:35:35.178Z,19.42
2022-11-13T16:40:57.985Z,18.77
2022-11-13T16:46:27.258Z,17.77
2022-11-13T16:51:49.483Z,16.50
2022-11-13T16:57:11.892Z,17.67
2022-11-13T17:02:35.583Z,16.70
2022-11-13T17:07:59.705Z,15.75
2022-11-13T17:13:22.468Z,17.00
2022-11-13T17:18:44.748Z,19.85
2022-11-13T17:24:09.191Z,16.67
2022-11-13T17:29:31.586Z,17.00
2022-11-13T17:34:54.689Z,16.87
2022-11-13T17:40:17.162Z,15.00
2022-11-13T17:45:41.360Z,14.18
2022-11-13T17:51:11.157Z,13.50
2022-11-13T17:56:35.064Z,14.03
2022-11-13T18:01:57.716Z,18.37
2022-11-13T18:07:20.263Z,22.90
2022-11-13T18:12:42.704Z,25.60
2022-11-13T18:18:04.931Z,25.25
2022-11-13T18:23:28.723Z,24.02
2022-11-13T18:28:52.429Z,22.23
2022-11-13T18:34:17.999Z,24.15
2022-11-13T18:39:40.462Z,22.70
2022-11-13T18:45:05.892Z,23.47
2022-11-13T18:50:28.109Z,20.00
2022-11-13T18:55:50.529Z,20.43
2022-11-13T19:01:22.177Z,21.00
2022-11-13T19:12:00.927Z,25.97
2022-11-13T19:17:23.146Z,24.47
2022-11-13T19:22:45.855Z,23.63
2022-11-13T19:28:08.370Z,26.30
2022-11-13T19:33:31.262Z,28.83
2022-11-13T19:38:54.959Z,23.38
2022-11-13T19:44:18.071Z,26.95
2022-11-13T19:49:40.277Z,24.87
2022-11-13T19:55:03.396Z,28.20
2022-11-13T20:00:26.359Z,25.25
2022-11-13T20:05:50.208Z,25.15
2022-11-13T20:11:19.636Z,22.85
2022-11-13T20:16:42.791Z,25.33
2022-11-13T20:22:06.600Z,25.90
2022-11-13T20:27:31.321Z,21.77
2022-11-13T20:32:58.137Z,21.02
2022-11-13T20:38:20.552Z,19.82
2022-11-13T20:43:43.397Z,18.40
2022-11-13T20:49:06.475Z,18.50
2022-11-13T20:54:28.853Z,16.27
2022-11-13T20:59:51.165Z,14.07
2022-11-13T21:05:14.124Z,19.07
2022-11-13T21:10:36.348Z,11.27
2022-11-13T21:15:58.634Z,12.20
2022-11-13T21:21:29.217Z,13.10
2022-11-13T21:26:51.884Z,11.97
2022-11-13T21:32:14.087Z,12.07
2022-11-13T21:37:38.094Z,11.60
2022-11-13T21:43:00.623Z,11.55
2022-11-13T21:48:22.909Z,12.90
2022-11-13T21:53:45.241Z,11.80
2022-11-13T21:59:08.020Z,11.55
2022-11-13T22:04:30.767Z,13.57
2022-11-13T22:09:53.454Z,13.28
2022-11-13T22:15:16.218Z,14.80
2022-11-13T22:20:38.426Z,12.33
2022-11-13T22:26:02.524Z,11.60
2022-11-13T22:31:27.915Z,14.85
2022-11-13T22:36:51.524Z,13.53
2022-11-13T22:42:13.721Z,11.03
2022-11-13T22:47:38.155Z,14.70
2022-11-13T22:53:00.273Z,14.67
2022-11-13T22:58:22.460Z,12.47
2022-11-13T23:03:46.893Z,14.63
2022-11-13T23:09:10.805Z,14.80
2022-11-13T23:14:33.059Z,16.07
2022-11-13T23:19:55.839Z,16.10
2022-11-13T23:25:18.279Z,14.63
2022-11-13T23:30:40.739Z,15.05
2022-11-13T23:36:03.899Z,14.03
2022-11-13T23:41:28.140Z,16.48
2022-11-13T23:46:50.337Z,18.40
2022-11-13T23:52:12.505Z,14.13
2022-11-13T23:57:35.380Z,19.73
